KGSO METAR and TAF | Updated Today

KGSO METAR

Piedmont Triad International Airport

Observation time: 42 min. ago

KGSO 302054Z 26011KT 10SM FEW014 FEW050 15/12 A2992 RMK AO2 SLP127 T01500122 53009

Need help? Read our tutorial on how to read METARs or read the parsed version below.

Piedmont Triad International Airport (KGSO) METAR

  • Weather conditions on Wed, 30 Nov 2022 20:54:00 +0000 (42 min. ago):
  • Present conditions: Dry
  • Clouds: A few at 427 meters; a few at 1524 meters
  • Visibility: 16093 meters
  • Wind: 260 degrees at 11 knots
  • Temperature: 15 celsius
  • Dew point: 12 celsius
  • Pressure: 29.92 inHg
  • Remarks: AO2 SLP127 T01500122 53009


Useful to know...

KGSO TAF

Piedmont Triad International Airport

KGSO 302017Z 3020/0118 27010G20KT P6SM SCT020 SCT035 FM010000 32010KT P6SM SKC
Observation time: 79 min. ago
Need help? Read our tutorial on how to read TAFs or read the parsed version below.

Parsed version of TAF for Piedmont Triad International Airport (KGSO)

  • From 30 November at 20:00 UTC, to day 01 of the month at 18:00 UTC
  • Clouds: Scattered at 610 meters; scattered at 1067 meters
  • Wind: 270 degrees at 10
  • From day 1 of the month at 00:00 UTC
  • Clouds: No significant changes expected
  • Wind: 320 degrees at 10